createdAt,value
2018-04-27T00:01:00.936Z,10.90
2018-04-27T00:03:28.360Z,10.90
2018-04-27T00:05:55.799Z,10.90
2018-04-27T00:08:23.281Z,10.90
2018-04-27T00:10:50.703Z,10.90
2018-04-27T00:13:18.138Z,10.90
2018-04-27T00:15:46.344Z,11.10
2018-04-27T00:18:13.814Z,11.00
2018-04-27T00:20:41.272Z,11.00
2018-04-27T00:23:08.708Z,11.20
2018-04-27T00:25:36.288Z,10.90
2018-04-27T00:28:03.720Z,10.90
2018-04-27T00:30:31.155Z,10.70
2018-04-27T00:32:58.582Z,10.70
2018-04-27T00:35:26.007Z,10.70
2018-04-27T00:37:54.522Z,10.60
2018-04-27T00:40:21.943Z,10.60
2018-04-27T00:42:50.120Z,10.50
2018-04-27T00:45:17.537Z,10.50
2018-04-27T00:47:45.136Z,10.50
2018-04-27T00:50:12.560Z,10.60
2018-04-27T00:52:52.447Z,10.50
2018-04-27T00:55:19.910Z,10.50
2018-04-27T00:57:47.434Z,10.50
2018-04-27T01:00:14.909Z,10.40
2018-04-27T01:02:43.118Z,10.40
2018-04-27T01:05:11.353Z,10.30
2018-04-27T01:07:38.782Z,10.30
2018-04-27T01:10:06.217Z,10.30
2018-04-27T01:12:33.703Z,10.30
2018-04-27T01:15:01.137Z,10.30
2018-04-27T01:17:28.571Z,10.20
2018-04-27T01:19:56.001Z,10.20
2018-04-27T01:22:23.428Z,10.10
2018-04-27T01:24:50.874Z,10.00
2018-04-27T01:27:18.315Z,9.90
2018-04-27T01:29:46.541Z,10.00
2018-04-27T01:32:14.617Z,10.00
2018-04-27T01:34:42.862Z,9.90
2018-04-27T01:37:10.245Z,9.80
2018-04-27T01:39:37.679Z,9.90
2018-04-27T01:42:05.126Z,9.80
2018-04-27T01:44:32.549Z,9.80
2018-04-27T01:47:00.765Z,9.70
2018-04-27T01:49:28.193Z,9.70
2018-04-27T01:51:55.657Z,9.70
2018-04-27T01:54:23.100Z,9.70
2018-04-27T01:56:50.529Z,9.80
2018-04-27T01:59:18.727Z,9.70
2018-04-27T02:01:46.147Z,9.70
2018-04-27T02:04:13.581Z,9.60
2018-04-27T02:06:41.072Z,9.70
2018-04-27T02:09:08.495Z,9.70
2018-04-27T02:11:35.929Z,9.60
2018-04-27T02:14:03.390Z,9.50
2018-04-27T02:16:30.847Z,9.40
2018-04-27T02:18:58.279Z,9.40
2018-04-27T02:21:25.696Z,9.40
2018-04-27T02:23:53.150Z,9.40
2018-04-27T02:26:20.575Z,9.30
2018-04-27T02:28:48.756Z,9.30
2018-04-27T02:31:16.941Z,9.30
2018-04-27T02:33:45.145Z,9.20
2018-04-27T02:36:12.569Z,9.20
2018-04-27T02:38:40.802Z,9.10
2018-04-27T02:41:08.261Z,9.10
2018-04-27T02:43:35.681Z,9.10
2018-04-27T02:46:03.122Z,9.10
2018-04-27T02:48:30.544Z,9.00
2018-04-27T02:50:57.979Z,9.10
2018-04-27T02:53:25.417Z,9.10
2018-04-27T02:55:53.613Z,9.00
2018-04-27T02:58:21.085Z,9.00
2018-04-27T03:00:48.515Z,8.90
2018-04-27T03:03:15.980Z,8.70
2018-04-27T03:05:43.455Z,8.70
2018-04-27T03:08:10.882Z,8.60
2018-04-27T03:10:38.357Z,8.60
2018-04-27T03:13:05.782Z,8.70
2018-04-27T03:15:33.995Z,8.50
2018-04-27T03:18:01.430Z,8.50
2018-04-27T03:20:28.890Z,8.50
2018-04-27T03:22:56.339Z,8.40
2018-04-27T03:25:23.738Z,8.50
2018-04-27T03:27:51.169Z,8.50
2018-04-27T03:30:18.607Z,8.50
2018-04-27T03:32:46.028Z,8.40
2018-04-27T03:35:13.447Z,8.50
2018-04-27T03:37:40.925Z,8.50
2018-04-27T03:40:08.347Z,8.40
2018-04-27T03:42:35.801Z,8.30
2018-04-27T03:45:03.247Z,8.30
2018-04-27T03:47:30.685Z,10.10
2018-04-27T03:49:58.897Z,8.30
2018-04-27T03:52:26.399Z,8.30
2018-04-27T03:54:53.869Z,8.40
2018-04-27T03:57:21.302Z,8.40
2018-04-27T04:00:00.533Z,8.40
2018-04-27T04:02:39.836Z,8.40
2018-04-27T04:05:19.277Z,8.40
2018-04-27T04:07:46.725Z,8.40
2018-04-27T04:10:14.174Z,8.40
2018-04-27T04:12:41.630Z,8.40
2018-04-27T04:15:09.833Z,8.40
2018-04-27T04:17:37.273Z,8.40
2018-04-27T04:20:04.691Z,8.30
2018-04-27T04:22:32.139Z,8.30
2018-04-27T04:25:00.326Z,8.20
2018-04-27T04:27:27.753Z,8.10
2018-04-27T04:29:55.187Z,8.30
2018-04-27T04:32:22.669Z,8.30
2018-04-27T04:34:50.074Z,8.30
2018-04-27T04:37:17.507Z,8.30
2018-04-27T04:39:44.942Z,8.50
2018-04-27T04:42:13.194Z,8.40
2018-04-27T04:44:40.599Z,8.30
2018-04-27T04:47:08.215Z,8.30
2018-04-27T04:49:35.646Z,8.20
2018-04-27T04:52:03.090Z,8.10
2018-04-27T04:54:30.575Z,8.20
2018-04-27T04:56:58.056Z,8.20
2018-04-27T04:59:26.045Z,8.30
2018-04-27T05:01:53.500Z,8.30
2018-04-27T05:04:20.903Z,8.30
2018-04-27T05:06:48.373Z,8.30
2018-04-27T05:09:16.444Z,8.30
2018-04-27T05:11:43.865Z,8.40
2018-04-27T05:14:11.347Z,8.30
2018-04-27T05:16:49.350Z,8.20
2018-04-27T05:21:57.636Z,8.20
2018-04-27T05:24:25.061Z,8.20
2018-04-27T05:26:59.276Z,8.40
2018-04-27T05:29:26.922Z,8.60
2018-04-27T05:31:54.340Z,8.60
2018-04-27T05:34:21.893Z,8.70
2018-04-27T05:36:50.388Z,8.80
2018-04-27T05:39:18.265Z,8.80
2018-04-27T05:41:45.709Z,8.80
2018-04-27T05:44:13.163Z,8.80
2018-04-27T05:46:40.619Z,8.80
2018-04-27T05:49:08.222Z,8.80
2018-04-27T05:51:36.495Z,9.10
2018-04-27T05:54:03.959Z,9.10
2018-04-27T05:56:32.708Z,9.20
2018-04-27T05:59:00.304Z,9.20
2018-04-27T06:01:27.736Z,9.20
2018-04-27T06:04:07.262Z,9.20
2018-04-27T06:06:35.117Z,9.40
2018-04-27T06:09:02.617Z,9.50
2018-04-27T06:11:30.810Z,9.50
2018-04-27T06:13:59.152Z,9.50
2018-04-27T06:16:26.581Z,9.50
2018-04-27T06:18:55.292Z,9.60
2018-04-27T06:21:22.706Z,9.60
2018-04-27T06:23:50.145Z,9.70
2018-04-27T06:26:17.585Z,9.80
2018-04-27T06:28:48.588Z,9.80
2018-04-27T06:31:16.091Z,9.90
2018-04-27T06:33:43.511Z,9.90
2018-04-27T06:36:10.947Z,9.90
2018-04-27T06:38:39.116Z,10.00
2018-04-27T06:41:07.361Z,10.10
2018-04-27T06:43:34.816Z,10.10
2018-04-27T06:46:02.293Z,10.10
2018-04-27T06:48:29.892Z,10.20
2018-04-27T06:50:57.526Z,10.20
2018-04-27T06:53:24.957Z,10.20
2018-04-27T06:55:52.384Z,10.30
2018-04-27T06:58:19.820Z,10.40
2018-04-27T07:00:48.360Z,10.50
2018-04-27T07:03:15.849Z,10.60
2018-04-27T07:05:43.254Z,10.50
2018-04-27T07:08:11.469Z,10.60
2018-04-27T07:10:38.878Z,10.60
2018-04-27T07:13:06.337Z,10.60
2018-04-27T07:15:33.849Z,10.60
2018-04-27T07:18:02.110Z,10.70
2018-04-27T07:20:29.527Z,10.70
2018-04-27T07:22:56.983Z,10.80
2018-04-27T07:25:25.168Z,11.00
2018-04-27T07:27:52.599Z,11.00
2018-04-27T07:30:20.025Z,11.10
2018-04-27T07:32:47.449Z,11.10
2018-04-27T07:35:14.904Z,11.10
2018-04-27T07:37:42.381Z,11.20
2018-04-27T07:40:09.815Z,11.30
2018-04-27T07:42:37.334Z,11.40
2018-04-27T07:45:04.769Z,11.40
2018-04-27T07:47:32.200Z,11.50
2018-04-27T07:50:00.396Z,11.50
2018-04-27T07:52:28.594Z,11.50
2018-04-27T07:54:55.997Z,11.50
2018-04-27T07:57:23.416Z,11.60
2018-04-27T07:59:50.874Z,11.70
2018-04-27T08:02:19.125Z,11.70
2018-04-27T08:04:46.510Z,11.60
2018-04-27T08:07:14.003Z,11.70
2018-04-27T08:09:41.356Z,11.70
2018-04-27T08:12:08.810Z,11.80
2018-04-27T08:14:36.259Z,11.80
2018-04-27T08:17:03.705Z,11.90
2018-04-27T08:19:31.136Z,12.00
2018-04-27T08:21:58.559Z,12.10
2018-04-27T08:24:26.009Z,12.10
2018-04-27T08:26:53.426Z,12.20
2018-04-27T08:29:20.879Z,12.20
2018-04-27T08:31:48.302Z,12.20
2018-04-27T08:34:16.548Z,12.20
2018-04-27T08:36:43.973Z,12.20
2018-04-27T08:39:11.404Z,12.30
2018-04-27T08:41:38.959Z,12.40
2018-04-27T08:44:07.190Z,12.50
2018-04-27T08:46:34.637Z,12.50
2018-04-27T08:49:02.074Z,12.60
2018-04-27T08:51:29.508Z,12.70
2018-04-27T08:53:56.962Z,12.80
2018-04-27T08:56:25.174Z,13.00
2018-04-27T08:58:52.609Z,13.00
2018-04-27T09:01:20.090Z,13.10
2018-04-27T09:03:48.288Z,13.10
2018-04-27T09:06:15.839Z,13.10
2018-04-27T09:08:43.211Z,13.10
2018-04-27T09:11:11.408Z,13.30
2018-04-27T09:13:39.601Z,13.30
2018-04-27T09:16:07.082Z,13.30
2018-04-27T09:18:34.502Z,13.40
2018-04-27T09:21:01.931Z,13.40
2018-04-27T09:23:29.363Z,13.50
2018-04-27T09:25:57.558Z,13.60
2018-04-27T09:28:25.749Z,13.70
2018-04-27T09:30:53.933Z,13.90
2018-04-27T09:33:22.130Z,13.90
2018-04-27T09:35:49.555Z,13.90
2018-04-27T09:38:17.030Z,14.00
2018-04-27T09:40:44.576Z,14.00
2018-04-27T09:43:11.986Z,14.10
2018-04-27T09:45:39.441Z,14.30
2018-04-27T09:48:06.893Z,14.40
2018-04-27T09:50:34.376Z,14.40
2018-04-27T09:53:01.887Z,14.30
2018-04-27T09:55:29.324Z,14.40
2018-04-27T09:57:56.767Z,14.50
2018-04-27T10:00:24.210Z,14.50
2018-04-27T10:02:51.915Z,14.60
2018-04-27T10:05:19.340Z,14.70
2018-04-27T10:07:46.829Z,14.80
2018-04-27T10:10:14.255Z,14.80
2018-04-27T10:12:41.740Z,14.70
2018-04-27T10:15:09.237Z,14.90
2018-04-27T10:17:36.686Z,15.00
2018-04-27T10:20:04.903Z,15.00
2018-04-27T10:22:32.337Z,15.00
2018-04-27T10:24:59.789Z,15.00
2018-04-27T10:27:28.065Z,15.00
2018-04-27T10:29:55.598Z,15.20
2018-04-27T10:32:23.921Z,15.30
2018-04-27T10:34:51.353Z,15.30
2018-04-27T10:37:18.839Z,15.30
2018-04-27T10:39:46.266Z,15.40
2018-04-27T10:42:14.478Z,15.40
2018-04-27T10:44:41.895Z,15.40
2018-04-27T10:47:09.511Z,15.50
2018-04-27T10:49:37.677Z,15.50
2018-04-27T10:52:05.149Z,15.40
2018-04-27T10:54:32.641Z,15.30
2018-04-27T10:57:00.069Z,15.50
2018-04-27T10:59:27.505Z,15.60
2018-04-27T11:01:54.929Z,15.80
2018-04-27T11:04:23.131Z,15.90
2018-04-27T11:06:51.377Z,15.80
2018-04-27T11:09:18.784Z,15.80
2018-04-27T11:11:47.327Z,16.00
2018-04-27T11:14:14.773Z,16.00
2018-04-27T11:16:42.258Z,16.00
2018-04-27T11:19:09.860Z,15.90
2018-04-27T11:21:37.300Z,16.00
2018-04-27T11:24:04.730Z,16.20
2018-04-27T11:26:32.170Z,16.20
2018-04-27T11:28:59.616Z,16.30
2018-04-27T11:31:27.048Z,16.50
2018-04-27T11:33:54.529Z,16.50
2018-04-27T11:36:21.981Z,16.50
2018-04-27T11:38:49.386Z,16.40
2018-04-27T11:41:16.862Z,16.50
2018-04-27T11:43:44.317Z,16.60
2018-04-27T11:46:11.781Z,16.80
2018-04-27T11:48:39.216Z,17.00
2018-04-27T11:51:06.650Z,16.90
2018-04-27T11:53:34.093Z,16.90
2018-04-27T11:56:01.565Z,16.90
2018-04-27T11:58:29.025Z,17.00
2018-04-27T12:00:56.452Z,16.90
2018-04-27T12:03:23.908Z,17.00
2018-04-27T12:05:51.335Z,17.20
2018-04-27T12:08:18.757Z,17.20
2018-04-27T12:10:46.386Z,17.30
2018-04-27T12:13:13.773Z,17.30
2018-04-27T12:15:41.195Z,17.20
2018-04-27T12:18:09.402Z,17.40
2018-04-27T12:20:36.863Z,17.40
2018-04-27T12:23:04.321Z,17.50
2018-04-27T12:25:31.771Z,17.60
2018-04-27T12:27:59.199Z,18.00
2018-04-27T12:30:26.669Z,18.20
2018-04-27T12:32:54.099Z,18.30
2018-04-27T12:35:22.299Z,18.00
2018-04-27T12:37:50.485Z,18.20
2018-04-27T12:40:17.924Z,18.20
2018-04-27T12:42:45.437Z,18.30
2018-04-27T12:45:12.857Z,18.50
2018-04-27T12:47:40.344Z,18.50
2018-04-27T12:50:08.078Z,18.20
2018-04-27T12:52:35.511Z,18.30
2018-04-27T12:55:03.710Z,18.30
2018-04-27T12:57:31.149Z,18.20
2018-04-27T12:59:59.360Z,18.30
2018-04-27T13:02:26.800Z,18.30
2018-04-27T13:04:54.251Z,18.30
2018-04-27T13:07:21.693Z,18.40
2018-04-27T13:09:49.166Z,18.40
2018-04-27T13:12:16.705Z,18.50
2018-04-27T13:14:44.185Z,18.50
2018-04-27T13:17:12.412Z,18.50
2018-04-27T13:19:39.897Z,18.50
2018-04-27T13:22:07.325Z,18.70
2018-04-27T13:24:34.770Z,18.60
2018-04-27T13:27:02.976Z,18.50
2018-04-27T13:29:30.416Z,18.40
2018-04-27T13:31:57.872Z,18.50
2018-04-27T13:34:25.311Z,18.50
2018-04-27T13:36:52.739Z,18.60
2018-04-27T13:39:20.953Z,18.90
2018-04-27T13:41:48.366Z,18.80
2018-04-27T13:44:15.835Z,18.90
2018-04-27T13:46:43.236Z,19.00
2018-04-27T13:49:10.673Z,19.10
2018-04-27T13:51:38.173Z,19.20
2018-04-27T13:54:05.630Z,19.30
2018-04-27T13:56:33.046Z,19.40
2018-04-27T13:59:00.474Z,19.40
2018-04-27T14:01:28.679Z,19.60
2018-04-27T14:03:56.424Z,19.50
2018-04-27T14:06:23.885Z,19.60
2018-04-27T14:08:51.314Z,19.80
2018-04-27T14:11:18.789Z,19.70
2018-04-27T14:13:46.201Z,19.70
2018-04-27T14:16:13.643Z,20.00
2018-04-27T14:18:41.088Z,20.00
2018-04-27T14:21:08.535Z,20.10
2018-04-27T14:23:36.728Z,20.50
2018-04-27T14:26:04.171Z,20.40
2018-04-27T14:28:31.609Z,20.70
2018-04-27T14:30:59.068Z,20.90
2018-04-27T14:33:26.723Z,21.40
2018-04-27T14:35:54.917Z,22.30
2018-04-27T14:38:23.384Z,22.20
2018-04-27T14:40:50.861Z,23.10
2018-04-27T14:43:19.038Z,22.40
2018-04-27T14:45:46.485Z,22.40
2018-04-27T14:48:13.901Z,22.20
2018-04-27T14:50:41.322Z,22.00
2018-04-27T14:53:08.763Z,21.90
2018-04-27T14:55:36.183Z,21.90
2018-04-27T14:58:04.443Z,21.90
2018-04-27T15:00:31.867Z,21.90
2018-04-27T15:02:59.314Z,21.90
2018-04-27T15:05:27.528Z,22.10
2018-04-27T15:07:54.952Z,22.10
2018-04-27T15:10:22.379Z,22.30
2018-04-27T15:12:49.844Z,22.60
2018-04-27T15:15:17.268Z,22.80
2018-04-27T15:17:45.464Z,23.20
2018-04-27T15:20:12.921Z,23.10
2018-04-27T15:22:40.352Z,23.20
2018-04-27T15:25:07.809Z,23.20
2018-04-27T15:27:35.262Z,23.60
2018-04-27T15:30:02.700Z,23.50
2018-04-27T15:32:30.103Z,23.30
2018-04-27T15:34:57.566Z,23.30
2018-04-27T15:37:24.989Z,23.60
2018-04-27T15:39:52.473Z,23.70
2018-04-27T15:42:20.679Z,23.40
2018-04-27T15:44:48.105Z,23.30
2018-04-27T15:47:15.577Z,23.20
2018-04-27T15:49:43.026Z,22.80
2018-04-27T15:52:10.455Z,23.20
2018-04-27T15:54:38.689Z,24.00
2018-04-27T15:57:06.922Z,24.00
2018-04-27T15:59:34.339Z,24.30
2018-04-27T16:02:01.913Z,24.50
2018-04-27T16:04:29.358Z,23.90
2018-04-27T16:06:56.827Z,24.30
2018-04-27T16:09:25.108Z,25.50
2018-04-27T16:11:52.481Z,25.40
2018-04-27T16:14:22.690Z,24.90
2018-04-27T16:16:50.137Z,24.80
2018-04-27T16:19:17.655Z,25.40
2018-04-27T16:21:45.186Z,25.40
2018-04-27T16:24:12.654Z,25.80
2018-04-27T16:26:40.121Z,25.60
2018-04-27T16:29:07.619Z,25.80
2018-04-27T16:31:35.090Z,25.70
2018-04-27T16:34:02.560Z,24.80
2018-04-27T16:36:30.195Z,24.70
2018-04-27T16:38:57.701Z,24.50
2018-04-27T16:41:25.246Z,24.20
2018-04-27T16:43:52.964Z,23.80
2018-04-27T16:46:20.409Z,23.30
2018-04-27T16:48:47.862Z,23.00
2018-04-27T16:51:15.357Z,23.00
2018-04-27T16:53:42.849Z,24.20
2018-04-27T16:56:10.317Z,25.60
2018-04-27T16:58:37.795Z,26.50
2018-04-27T17:01:05.212Z,27.20
2018-04-27T17:03:32.670Z,28.70
2018-04-27T17:06:00.089Z,29.90
2018-04-27T17:08:27.536Z,30.10
2018-04-27T17:10:54.973Z,30.80
2018-04-27T17:13:22.742Z,29.40
2018-04-27T17:15:50.348Z,26.50
2018-04-27T17:18:17.755Z,25.10
2018-04-27T17:20:45.226Z,24.70
2018-04-27T17:23:13.437Z,24.70
2018-04-27T17:25:41.010Z,24.60
2018-04-27T17:28:08.423Z,24.60
2018-04-27T17:30:35.869Z,23.80
2018-04-27T17:33:03.309Z,23.20
2018-04-27T17:35:30.753Z,22.80
2018-04-27T17:37:58.218Z,22.40
2018-04-27T17:40:26.687Z,21.90
2018-04-27T17:42:54.088Z,21.90
2018-04-27T17:45:22.349Z,21.60
2018-04-27T17:47:49.773Z,21.50
2018-04-27T17:50:19.092Z,21.50
2018-04-27T17:52:46.543Z,21.30
2018-04-27T17:55:14.794Z,20.90
2018-04-27T17:57:42.268Z,20.90
2018-04-27T18:00:09.751Z,20.80
2018-04-27T18:02:37.175Z,20.70
2018-04-27T18:05:04.676Z,20.60
2018-04-27T18:07:32.195Z,20.50
2018-04-27T18:10:01.499Z,20.50
2018-04-27T18:12:28.963Z,20.70
2018-04-27T18:14:56.445Z,21.20
2018-04-27T18:17:23.899Z,21.20
2018-04-27T18:19:51.359Z,20.90
2018-04-27T18:22:18.972Z,20.60
2018-04-27T18:24:46.479Z,20.50
2018-04-27T18:27:14.735Z,20.10
2018-04-27T18:29:42.206Z,20.10
2018-04-27T18:32:09.651Z,20.10
2018-04-27T18:34:37.189Z,20.00
2018-04-27T18:37:04.665Z,19.90
2018-04-27T18:39:32.208Z,19.70
2018-04-27T18:41:59.653Z,19.50
2018-04-27T18:44:27.729Z,19.50
2018-04-27T18:46:55.128Z,19.40
2018-04-27T18:49:22.591Z,19.30
2018-04-27T18:51:50.034Z,19.30
2018-04-27T18:54:17.527Z,19.20
2018-04-27T18:56:45.025Z,19.20
2018-04-27T18:59:13.406Z,19.10
2018-04-27T19:01:40.895Z,19.00
2018-04-27T19:04:08.358Z,18.90
2018-04-27T19:06:35.876Z,19.00
2018-04-27T19:09:03.366Z,19.00
2018-04-27T19:11:30.793Z,18.90
2018-04-27T19:13:59.104Z,18.60
2018-04-27T19:16:27.302Z,18.50
2018-04-27T19:18:56.556Z,18.40
2018-04-27T19:21:23.989Z,18.30
2018-04-27T19:23:51.615Z,18.20
2018-04-27T19:26:20.819Z,18.00
2018-04-27T19:28:48.279Z,18.00
2018-04-27T19:31:15.852Z,17.90
2018-04-27T19:33:43.310Z,17.70
2018-04-27T19:36:10.742Z,17.70
2018-04-27T19:38:38.212Z,17.70
2018-04-27T19:41:05.640Z,17.70
2018-04-27T19:43:33.069Z,17.50
2018-04-27T19:46:00.485Z,17.40
2018-04-27T19:48:28.695Z,17.10
2018-04-27T19:50:56.154Z,17.10
2018-04-27T19:53:24.360Z,17.00
2018-04-27T19:55:51.807Z,17.00
2018-04-27T19:58:20.073Z,14.30
2018-04-27T20:00:47.516Z,16.80
2018-04-27T20:03:14.962Z,16.70
2018-04-27T20:05:44.180Z,16.60
2018-04-27T20:08:11.594Z,16.50
2018-04-27T20:10:40.987Z,16.40
2018-04-27T20:13:23.180Z,16.50
2018-04-27T20:15:51.541Z,16.60
2018-04-27T20:18:24.662Z,16.60
2018-04-27T20:20:53.884Z,16.60
2018-04-27T20:23:23.166Z,16.60
2018-04-27T20:25:54.073Z,16.50
2018-04-27T20:28:21.514Z,16.50
2018-04-27T20:30:48.965Z,16.40
2018-04-27T20:33:21.184Z,16.40
2018-04-27T20:35:48.634Z,16.30
2018-04-27T20:38:20.777Z,16.30
2018-04-27T20:40:48.205Z,16.20
2018-04-27T20:43:31.829Z,16.20
2018-04-27T20:49:03.434Z,16.00
2018-04-27T20:51:30.872Z,16.00
2018-04-27T20:54:13.185Z,15.90
2018-04-27T20:56:44.154Z,16.00
2018-04-27T20:59:12.374Z,15.90
2018-04-27T21:01:39.829Z,15.80
2018-04-27T21:04:07.303Z,15.80
2018-04-27T21:06:35.528Z,15.70
2018-04-27T21:09:02.961Z,15.60
2018-04-27T21:11:33.235Z,15.50
2018-04-27T21:14:00.670Z,15.50
2018-04-27T21:16:28.101Z,15.40
2018-04-27T21:18:55.539Z,15.40
2018-04-27T21:21:23.040Z,15.20
2018-04-27T21:23:51.248Z,15.10
2018-04-27T21:26:28.237Z,15.10
2018-04-27T21:28:56.374Z,15.10
2018-04-27T21:31:23.883Z,15.10
2018-04-27T21:33:55.945Z,15.00
2018-04-27T21:36:25.127Z,14.90
2018-04-27T21:38:55.922Z,14.90
2018-04-27T21:41:24.297Z,14.80
2018-04-27T21:43:58.403Z,14.80
2018-04-27T21:46:26.753Z,14.70
2018-04-27T21:48:54.974Z,15.00
2018-04-27T21:51:26.043Z,14.90
2018-04-27T21:53:53.508Z,15.00
2018-04-27T21:56:20.976Z,15.10
2018-04-27T21:58:49.269Z,15.10
2018-04-27T22:01:16.692Z,15.20
2018-04-27T22:03:44.165Z,15.20
2018-04-27T22:06:23.530Z,14.90
2018-04-27T22:11:52.888Z,14.70
2018-04-27T22:14:28.274Z,14.60
2018-04-27T22:17:08.543Z,14.40
2018-04-27T22:19:36.762Z,14.40
2018-04-27T22:22:04.289Z,14.40
2018-04-27T22:27:25.873Z,14.60
2018-04-27T22:30:12.320Z,14.50
2018-04-27T22:32:39.818Z,14.60
2018-04-27T22:35:09.976Z,14.60
2018-04-27T22:37:38.531Z,14.60
2018-04-27T22:40:06.093Z,14.60
2018-04-27T22:42:45.043Z,14.60
2018-04-27T22:45:13.305Z,14.50
2018-04-27T22:47:47.670Z,14.50
2018-04-27T22:50:18.127Z,14.50
2018-04-27T22:52:46.516Z,14.50
2018-04-27T22:55:14.091Z,14.40
2018-04-27T23:00:37.932Z,14.40
2018-04-27T23:03:25.488Z,14.40
2018-04-27T23:05:54.643Z,14.30
2018-04-27T23:08:22.291Z,14.30
2018-04-27T23:10:56.674Z,14.20
2018-04-27T23:16:20.137Z,14.20
2018-04-27T23:18:47.804Z,14.30
2018-04-27T23:21:23.414Z,14.30
2018-04-27T23:23:51.053Z,14.30
2018-04-27T23:26:18.588Z,14.30
2018-04-27T23:28:46.242Z,14.30
2018-04-27T23:31:13.722Z,14.30
2018-04-27T23:33:41.933Z,14.20
2018-04-27T23:36:09.383Z,14.20
2018-04-27T23:38:36.895Z,14.20
2018-04-27T23:41:04.555Z,14.20
2018-04-27T23:43:32.275Z,14.30
2018-04-27T23:45:59.739Z,14.30
2018-04-27T23:48:27.182Z,14.30
2018-04-27T23:50:56.979Z,14.30
2018-04-27T23:53:25.260Z,14.40
2018-04-27T23:55:52.719Z,14.30
2018-04-27T23:58:25.035Z,14.20
